Time;durP1;ratioP1;P1;durP2;ratioP2;P2;SDS_P1;SDS_P2;PMS_P1;PMS_P2;Temp;Humidity;BMP_temperature;BMP_pressure;BME280_temperature;BME280_humidity;BME280_pressure;Samples;Min_cycle;Max_cycle;Signal;HPM_P1;HPM_P2
2022/03/29 00:01:13;;;;;;;39.88;24.15;;;;;;;6.41;100.00;101734.31;4925427;28;20045;-74
2022/03/29 00:03:38;;;;;;;38.70;23.83;;;;;;;6.45;100.00;101737.50;4931609;28;20137;-74
2022/03/29 00:06:03;;;;;;;44.03;25.05;;;;;;;6.53;100.00;101737.56;4943220;28;20128;-74
2022/03/29 00:08:29;;;;;;;37.63;25.02;;;;;;;6.49;100.00;101736.19;4928978;28;20057;-74
2022/03/29 00:10:54;;;;;;;43.67;25.15;;;;;;;6.47;100.00;101732.00;4912994;28;20132;-74
2022/03/29 00:13:20;;;;;;;39.45;25.85;;;;;;;6.53;100.00;101731.31;4924206;28;20100;-74
2022/03/29 00:15:45;;;;;;;39.88;24.45;;;;;;;6.49;100.00;101732.66;4926230;28;20031;-74
2022/03/29 00:18:11;;;;;;;42.92;24.10;;;;;;;6.43;100.00;101726.97;4911984;28;20074;-74
2022/03/29 00:20:36;;;;;;;48.85;26.00;;;;;;;6.43;100.00;101726.97;4924801;28;20603;-74
2022/03/29 00:23:03;;;;;;;36.38;22.98;;;;;;;6.43;100.00;101715.44;4909865;28;20383;-74
2022/03/29 00:25:28;;;;;;;46.70;25.02;;;;;;;6.51;100.00;101706.59;4909430;28;23748;-74
2022/03/29 00:27:54;;;;;;;37.97;24.10;;;;;;;6.54;100.00;101708.94;4926023;28;20099;-74
2022/03/29 00:30:20;;;;;;;38.28;25.67;;;;;;;6.45;100.00;101700.03;4915913;28;20868;-74
2022/03/29 00:32:46;;;;;;;42.00;24.65;;;;;;;6.39;100.00;101703.41;4910972;28;20042;-74
2022/03/29 00:35:11;;;;;;;40.20;24.58;;;;;;;6.36;100.00;101709.91;4909874;28;20181;-74
2022/03/29 00:37:38;;;;;;;38.20;24.38;;;;;;;6.31;100.00;101709.53;4937805;28;20495;-74
2022/03/29 00:40:05;;;;;;;47.28;26.45;;;;;;;6.27;100.00;101704.69;4928115;28;20039;-74
2022/03/29 00:42:31;;;;;;;45.95;29.52;;;;;;;6.24;100.00;101700.50;4915784;28;20047;-74
2022/03/29 00:44:56;;;;;;;42.53;26.63;;;;;;;6.27;100.00;101700.19;4923677;28;20067;-74
2022/03/29 00:47:22;;;;;;;43.30;26.98;;;;;;;6.39;100.00;101704.22;4908509;28;20138;-75
2022/03/29 00:49:48;;;;;;;49.33;28.42;;;;;;;6.42;100.00;101698.56;4925628;28;20372;-75
2022/03/29 00:52:13;;;;;;;45.97;28.30;;;;;;;6.40;100.00;101705.06;4908573;28;20698;-74
2022/03/29 00:54:41;;;;;;;48.45;28.65;;;;;;;6.38;100.00;101696.34;4924296;28;20151;-74
2022/03/29 00:57:07;;;;;;;47.17;27.50;;;;;;;6.30;100.00;101689.16;4924608;28;20038;-74
2022/03/29 00:59:32;;;;;;;47.85;27.27;;;;;;;6.29;100.00;101687.47;4937789;28;20041;-73
2022/03/29 01:01:58;;;;;;;48.63;28.23;;;;;;;6.29;100.00;101692.00;4911975;28;20038;-74
2022/03/29 01:04:25;;;;;;;46.58;28.98;;;;;;;6.28;100.00;101690.31;4906215;28;20046;-74
2022/03/29 01:06:53;;;;;;;53.75;30.20;;;;;;;6.27;100.00;101678.75;4923229;28;20133;-74
2022/03/29 01:09:18;;;;;;;50.70;30.23;;;;;;;6.29;100.00;101682.13;4909000;28;20061;-74
2022/03/29 01:11:44;;;;;;;52.15;29.25;;;;;;;6.30;100.00;101678.44;4909859;28;20039;-74
2022/03/29 01:14:09;;;;;;;45.85;28.27;;;;;;;6.26;100.00;101671.75;4910991;28;20145;-74
2022/03/29 01:19:22;;;;;;;52.13;30.15;;;;;;;6.19;100.00;101663.53;4909049;28;20063;-73
2022/03/29 01:21:58;;;;;;;48.42;27.50;;;;;;;6.20;100.00;101651.00;4910895;28;20058;-74
2022/03/29 01:24:28;;;;;;;44.63;27.77;;;;;;;6.18;100.00;101655.69;4917594;28;21136;-74
2022/03/29 01:26:56;;;;;;;50.88;28.30;;;;;;;6.05;100.00;101648.13;4912048;28;20051;-74
2022/03/29 01:29:22;;;;;;;51.60;29.17;;;;;;;6.05;100.00;101637.44;4924188;28;24588;-74
2022/03/29 01:31:51;;;;;;;50.13;28.33;;;;;;;6.04;100.00;101635.75;4909021;28;20051;-74
2022/03/29 01:34:20;;;;;;;46.75;29.50;;;;;;;6.04;100.00;101646.47;4921945;28;20039;-74
2022/03/29 01:36:46;;;;;;;49.95;30.05;;;;;;;6.07;100.00;101639.94;4910395;28;20109;-74
2022/03/29 01:39:11;;;;;;;44.95;27.70;;;;;;;6.06;100.00;101636.41;4906129;28;20050;-75
2022/03/29 01:41:38;;;;;;;51.35;30.35;;;;;;;6.05;100.00;101631.25;4911505;28;20054;-74
2022/03/29 01:44:08;;;;;;;49.17;29.00;;;;;;;6.06;100.00;101624.88;4925283;28;20030;-74
2022/03/29 01:46:33;;;;;;;48.88;29.38;;;;;;;6.05;100.00;101617.88;4908909;28;22422;-74
2022/03/29 01:49:00;;;;;;;52.83;30.67;;;;;;;6.11;100.00;101612.72;4892315;28;20054;-74
2022/03/29 01:51:26;;;;;;;50.97;30.38;;;;;;;6.10;100.00;101613.69;4921127;28;20632;-74
2022/03/29 01:53:57;;;;;;;50.22;30.17;;;;;;;6.02;100.00;101613.69;4911990;28;20047;-74
2022/03/29 01:56:26;;;;;;;53.47;29.70;;;;;;;5.97;100.00;101613.34;4920072;28;20038;-74
2022/03/29 01:58:52;;;;;;;57.42;30.08;;;;;;;5.96;100.00;101614.31;4919948;28;20133;-74
2022/03/29 02:01:17;;;;;;;51.67;29.75;;;;;;;5.98;100.00;101623.88;4921469;28;20365;-74
2022/03/29 02:03:42;;;;;;;56.28;31.95;;;;;;;6.02;100.00;101623.53;4906955;28;20058;-74
2022/03/29 02:06:08;;;;;;;57.88;31.08;;;;;;;6.05;100.00;101620.53;4906430;28;20165;-74
2022/03/29 02:08:34;;;;;;;58.97;31.92;;;;;;;6.10;100.00;101624.38;4923485;28;23921;-74
2022/03/29 02:11:00;;;;;;;54.83;32.75;;;;;;;6.08;100.00;101609.53;4909674;28;20275;-74
2022/03/29 02:13:26;;;;;;;55.00;32.67;;;;;;;6.17;100.00;101604.00;4927896;28;20042;-74
2022/03/29 02:15:51;;;;;;;55.08;32.70;;;;;;;6.09;100.00;101600.50;4911587;28;20050;-74
2022/03/29 02:18:17;;;;;;;56.50;31.23;;;;;;;6.11;100.00;101615.38;4940488;28;20145;-74
2022/03/29 02:20:42;;;;;;;52.15;31.38;;;;;;;6.13;100.00;101621.38;4911509;28;20150;-74
2022/03/29 02:23:09;;;;;;;52.80;31.90;;;;;;;6.16;100.00;101622.91;4927773;28;20048;-74
2022/03/29 02:25:35;;;;;;;52.33;31.58;;;;;;;6.18;100.00;101626.25;4918822;28;20066;-74
2022/03/29 02:28:02;;;;;;;51.50;30.95;;;;;;;6.14;100.00;101616.88;4925171;28;20120;-74
2022/03/29 02:30:28;;;;;;;56.97;31.27;;;;;;;6.12;100.00;101617.06;4930218;28;20022;-74
2022/03/29 02:32:53;;;;;;;50.08;32.60;;;;;;;6.10;100.00;101613.69;4910413;28;20053;-74
2022/03/29 02:35:19;;;;;;;53.72;31.35;;;;;;;6.12;100.00;101613.53;4928021;28;20041;-74
2022/03/29 02:37:44;;;;;;;51.58;31.92;;;;;;;6.04;100.00;101605.47;4913100;28;20092;-74
2022/03/29 02:40:11;;;;;;;56.10;30.75;;;;;;;6.06;100.00;101607.00;4925087;28;20042;-74
2022/03/29 02:42:55;;;;;;;50.10;29.23;;;;;;;6.11;100.00;101593.16;4893178;28;22464;-74
2022/03/29 02:45:23;;;;;;;49.80;29.13;;;;;;;6.06;100.00;101590.13;4913141;28;20161;-74
2022/03/29 02:47:53;;;;;;;52.47;31.00;;;;;;;6.00;100.00;101591.59;4925375;28;20497;-74
2022/03/29 02:50:20;;;;;;;48.67;29.15;;;;;;;6.00;100.00;101585.41;4947423;28;20088;-74
2022/03/29 02:52:47;;;;;;;50.33;29.58;;;;;;;5.91;100.00;101593.41;4927599;28;20041;-74
2022/03/29 02:55:14;;;;;;;47.22;29.40;;;;;;;5.96;100.00;101593.75;4900251;28;20081;-75
2022/03/29 02:57:40;;;;;;;57.15;29.88;;;;;;;5.91;100.00;101588.06;4916005;28;20045;-74
2022/03/29 03:00:07;;;;;;;57.28;30.73;;;;;;;5.98;100.00;101594.44;4909132;28;20077;-75
2022/03/29 03:02:32;;;;;;;53.08;30.73;;;;;;;6.01;100.00;101589.78;4927461;28;20153;-75
2022/03/29 03:04:59;;;;;;;59.22;29.58;;;;;;;5.98;100.00;101588.28;4931386;28;20137;-75
2022/03/29 03:07:25;;;;;;;56.75;31.92;;;;;;;5.93;100.00;101585.25;4932319;28;20042;-74
2022/03/29 03:09:50;;;;;;;55.13;31.77;;;;;;;5.96;100.00;101585.75;4937377;28;20046;-75
2022/03/29 03:12:16;;;;;;;54.80;31.38;;;;;;;5.95;100.00;101578.72;4918000;28;20481;-74
2022/03/29 03:14:41;;;;;;;52.80;31.90;;;;;;;5.92;100.00;101573.72;4924215;28;20073;-74
2022/03/29 03:17:06;;;;;;;52.63;30.92;;;;;;;5.92;100.00;101565.69;4913048;28;20050;-74
2022/03/29 03:19:32;;;;;;;48.83;30.15;;;;;;;5.92;100.00;101567.50;4925717;28;20041;-74
2022/03/29 03:21:57;;;;;;;49.42;30.98;;;;;;;6.02;100.00;101567.38;4906890;28;20076;-74
2022/03/29 03:24:23;;;;;;;51.20;29.80;;;;;;;5.93;100.00;101564.72;4929999;28;20675;-74
2022/03/29 03:26:48;;;;;;;55.97;31.70;;;;;;;5.89;100.00;101563.31;4908432;28;20193;-75
2022/03/29 03:29:13;;;;;;;54.03;29.83;;;;;;;5.92;100.00;101549.63;4926414;28;20568;-74
2022/03/29 03:31:39;;;;;;;57.65;32.00;;;;;;;5.93;100.00;101556.69;4928897;28;20114;-74
2022/03/29 03:34:04;;;;;;;52.75;29.15;;;;;;;5.95;100.00;101552.00;4910741;28;20055;-74
2022/03/29 03:36:30;;;;;;;49.45;30.27;;;;;;;5.94;100.00;101553.00;4925018;28;20035;-74
2022/03/29 03:38:55;;;;;;;57.78;31.33;;;;;;;5.91;100.00;101545.28;4912095;28;20058;-74
2022/03/29 03:41:21;;;;;;;54.92;29.10;;;;;;;5.93;100.00;101543.31;4931953;28;20035;-75
2022/03/29 03:43:46;;;;;;;49.33;29.75;;;;;;;5.89;100.00;101536.56;4910566;28;20054;-75
2022/03/29 03:46:11;;;;;;;50.28;29.67;;;;;;;5.91;100.00;101536.41;4924257;28;22123;-75
2022/03/29 03:48:37;;;;;;;53.92;30.63;;;;;;;5.88;100.00;101534.91;4923089;28;20169;-76
2022/03/29 03:51:02;;;;;;;53.45;30.40;;;;;;;6.02;100.00;101535.28;4922287;28;20026;-75
2022/03/29 03:53:29;;;;;;;49.58;31.02;;;;;;;5.97;100.00;101535.78;4927187;28;20043;-75
2022/03/29 03:55:54;;;;;;;50.53;29.75;;;;;;;5.93;100.00;101540.63;4910257;28;21419;-76
2022/03/29 03:58:19;;;;;;;54.40;30.00;;;;;;;5.98;100.00;101542.81;4925932;28;20042;-75
2022/03/29 04:00:45;;;;;;;58.00;31.20;;;;;;;5.96;100.00;101537.59;4905909;28;20055;-75
2022/03/29 04:03:10;;;;;;;58.65;31.73;;;;;;;5.92;100.00;101536.28;4926146;28;20030;-75
2022/03/29 04:05:36;;;;;;;58.45;32.90;;;;;;;5.89;100.00;101525.88;4909300;28;20061;-75
2022/03/29 04:08:02;;;;;;;57.72;32.05;;;;;;;5.92;100.00;101519.38;4926114;28;20039;-75
2022/03/29 04:10:27;;;;;;;62.72;31.98;;;;;;;5.90;100.00;101519.53;4924604;28;20081;-75
2022/03/29 04:12:53;;;;;;;52.38;30.35;;;;;;;5.89;100.00;101519.69;4894615;28;20053;-75
2022/03/29 04:15:18;;;;;;;53.70;31.20;;;;;;;5.91;100.00;101515.84;4924401;28;20104;-75
2022/03/29 04:17:43;;;;;;;54.63;33.20;;;;;;;5.90;100.00;101513.38;4907670;28;20046;-75
2022/03/29 04:20:09;;;;;;;58.15;32.38;;;;;;;5.86;100.00;101515.53;4895174;28;20158;-75
2022/03/29 04:22:35;;;;;;;60.75;32.40;;;;;;;5.84;100.00;101512.16;4908302;28;20054;-75
2022/03/29 04:25:00;;;;;;;50.35;30.80;;;;;;;5.83;100.00;101507.84;4925634;28;20037;-75
2022/03/29 04:27:26;;;;;;;63.47;34.28;;;;;;;5.82;100.00;101514.16;4923500;28;20125;-75
2022/03/29 04:29:51;;;;;;;54.45;32.47;;;;;;;5.82;100.00;101513.34;4921996;28;20077;-75
2022/03/29 04:32:17;;;;;;;57.97;32.78;;;;;;;5.80;100.00;101508.16;4924867;28;20038;-75
2022/03/29 04:34:44;;;;;;;56.85;32.17;;;;;;;5.80;100.00;101505.50;4910852;28;20042;-75
2022/03/29 04:37:10;;;;;;;61.47;34.40;;;;;;;5.79;100.00;101503.81;4923587;28;22772;-75
2022/03/29 04:39:38;;;;;;;68.50;32.90;;;;;;;5.81;100.00;101507.16;4910260;28;23973;-75
2022/03/29 04:42:04;;;;;;;59.15;33.55;;;;;;;5.83;100.00;101494.47;4923258;28;20038;-75
2022/03/29 04:44:30;;;;;;;60.33;35.13;;;;;;;5.80;100.00;101494.78;4912219;28;20050;-75
2022/03/29 04:46:56;;;;;;;56.08;33.25;;;;;;;5.79;100.00;101493.13;4919553;28;20114;-75
2022/03/29 04:49:21;;;;;;;57.33;31.42;;;;;;;5.82;100.00;101490.09;4918283;28;20532;-75
2022/03/29 04:51:46;;;;;;;54.75;34.97;;;;;;;5.83;100.00;101494.47;4909257;28;21074;-75
2022/03/29 04:54:12;;;;;;;62.25;33.28;;;;;;;5.85;100.00;101500.47;4924047;28;20041;-75
2022/03/29 04:56:37;;;;;;;52.92;33.22;;;;;;;5.80;100.00;101494.78;4911353;28;20062;-75
2022/03/29 04:59:03;;;;;;;56.50;32.35;;;;;;;5.83;100.00;101494.47;4922952;28;20085;-75
2022/03/29 05:01:28;;;;;;;59.92;33.63;;;;;;;5.86;100.00;101494.13;4910923;28;20042;-75
2022/03/29 05:03:54;;;;;;;52.20;31.15;;;;;;;5.83;100.00;101494.47;4925914;28;20057;-75
2022/03/29 05:06:19;;;;;;;52.90;33.55;;;;;;;5.80;100.00;101489.44;4909823;28;20042;-75
2022/03/29 05:08:45;;;;;;;63.60;31.30;;;;;;;5.86;100.00;101496.81;4923571;28;20037;-75
2022/03/29 05:11:10;;;;;;;60.65;31.63;;;;;;;5.86;100.00;101499.50;4923590;28;21003;-75
2022/03/29 05:13:35;;;;;;;64.97;34.70;;;;;;;5.88;100.00;101492.13;4910341;28;20255;-75
2022/03/29 05:16:01;;;;;;;60.40;32.95;;;;;;;5.88;100.00;101491.28;4924356;28;20093;-75
2022/03/29 05:18:27;;;;;;;57.05;33.53;;;;;;;5.91;100.00;101491.78;4912214;28;20089;-75
2022/03/29 05:20:52;;;;;;;55.83;33.72;;;;;;;5.91;100.00;101481.09;4923829;28;20035;-75
2022/03/29 05:23:20;;;;;;;59.45;33.08;;;;;;;5.88;100.00;101486.78;4908615;28;20054;-75
2022/03/29 05:25:45;;;;;;;63.60;33.70;;;;;;;5.87;100.00;101490.47;4926167;28;20027;-75
2022/03/29 05:28:11;;;;;;;67.95;33.30;;;;;;;5.88;100.00;101484.09;4923369;28;20509;-75
2022/03/29 05:30:36;;;;;;;69.53;32.67;;;;;;;5.95;100.00;101489.66;4899498;28;20081;-75
2022/03/29 05:33:03;;;;;;;60.70;32.30;;;;;;;6.04;100.00;101482.44;4920423;28;20038;-75
2022/03/29 05:35:30;;;;;;;59.35;32.35;;;;;;;6.02;100.00;101485.31;4908516;28;20059;-75
2022/03/29 05:38:00;;;;;;;57.13;32.47;;;;;;;5.93;100.00;101484.47;4923589;28;20130;-74
2022/03/29 05:40:26;;;;;;;55.25;31.17;;;;;;;6.00;100.00;101484.63;4894242;28;20133;-74
2022/03/29 05:42:52;;;;;;;60.58;33.67;;;;;;;5.98;100.00;101484.81;4920602;28;20046;-74
2022/03/29 05:45:19;;;;;;;65.47;33.97;;;;;;;5.95;100.00;101474.44;4905881;28;20053;-74
2022/03/29 05:50:28;;;;;;;57.72;34.20;;;;;;;6.01;100.00;101480.13;4920912;28;20129;-74
2022/03/29 05:52:55;;;;;;;61.28;33.63;;;;;;;6.02;100.00;101477.28;4916031;28;20055;-74
2022/03/29 05:55:21;;;;;;;61.38;34.50;;;;;;;6.02;100.00;101481.81;4925332;28;20105;-75
2022/03/29 05:57:49;;;;;;;62.88;33.35;;;;;;;6.05;100.00;101473.44;4912262;28;21056;-75
2022/03/29 06:00:18;;;;;;;52.70;31.83;;;;;;;6.07;100.00;101466.06;4925734;28;20042;-75
2022/03/29 06:02:44;;;;;;;67.32;34.00;;;;;;;6.10;100.00;101473.75;4913989;28;20058;-74
2022/03/29 06:05:10;;;;;;;60.13;33.88;;;;;;;6.11;100.00;101468.25;4926456;28;20126;-74
2022/03/29 06:07:35;;;;;;;61.85;34.80;;;;;;;6.11;100.00;101462.09;4912286;28;20533;-74
2022/03/29 06:10:08;;;;;;;70.05;37.47;;;;;;;6.15;100.00;101471.44;4928241;28;20030;-74
2022/03/29 06:12:36;;;;;;;66.05;35.30;;;;;;;6.14;100.00;101467.94;4926053;28;20026;-74
2022/03/29 06:15:06;;;;;;;61.03;34.58;;;;;;;6.17;100.00;101469.41;4916894;28;20055;-74
2022/03/29 06:17:32;;;;;;;64.82;35.88;;;;;;;6.18;100.00;101471.09;4929102;28;22450;-74
2022/03/29 06:19:57;;;;;;;59.88;36.45;;;;;;;6.26;100.00;101472.94;4907793;28;20074;-74
2022/03/29 06:22:23;;;;;;;61.00;35.75;;;;;;;6.28;100.00;101477.09;4925064;28;20038;-74
2022/03/29 06:24:49;;;;;;;60.42;37.45;;;;;;;6.30;100.00;101469.75;4910109;28;20638;-74
2022/03/29 06:27:14;;;;;;;71.40;36.05;;;;;;;6.34;100.00;101475.59;4928894;28;20061;-74
2022/03/29 06:29:42;;;;;;;66.45;37.17;;;;;;;6.37;100.00;101475.25;4910344;28;20108;-74
2022/03/29 06:32:08;;;;;;;73.47;39.47;;;;;;;6.38;100.00;101475.06;4925370;28;20038;-74
2022/03/29 06:34:33;;;;;;;68.32;37.30;;;;;;;6.44;100.00;101481.59;4920770;28;20499;-74
2022/03/29 06:36:59;;;;;;;70.68;37.10;;;;;;;6.44;100.00;101477.06;4915028;28;20145;-74
2022/03/29 06:39:26;;;;;;;58.78;36.30;;;;;;;6.45;100.00;101489.44;4929227;28;20691;-74
2022/03/29 06:41:54;;;;;;;67.13;37.75;;;;;;;6.49;100.00;101489.09;4911572;28;21936;-74
2022/03/29 06:44:20;;;;;;;70.20;36.20;;;;;;;6.50;100.00;101486.28;4914099;28;20022;-74
2022/03/29 06:46:47;;;;;;;61.75;36.83;;;;;;;6.59;100.00;101487.91;4910619;28;21659;-74
2022/03/29 06:49:12;;;;;;;66.78;38.38;;;;;;;6.58;100.00;101485.41;4926707;28;20066;-74
2022/03/29 06:51:38;;;;;;;68.80;38.67;;;;;;;6.61;100.00;101483.22;4910328;28;20053;-74
2022/03/29 06:54:04;;;;;;;61.45;38.22;;;;;;;6.61;100.00;101477.03;4927327;28;20031;-74
2022/03/29 06:56:30;;;;;;;64.55;36.78;;;;;;;6.72;100.00;101478.53;4925312;28;20042;-74
2022/03/29 06:58:57;;;;;;;66.43;35.42;;;;;;;6.78;100.00;101476.00;4911528;28;20051;-74
2022/03/29 07:01:22;;;;;;;62.25;32.50;;;;;;;6.91;100.00;101480.78;4927482;28;20034;-74
2022/03/29 07:03:47;;;;;;;61.28;32.13;;;;;;;6.94;100.00;101475.91;4895933;28;20521;-76
2022/03/29 07:06:13;;;;;;;58.40;31.67;;;;;;;7.01;100.00;101472.53;4929741;28;20509;-74
2022/03/29 07:11:16;;;;;;;55.97;32.20;;;;;;;7.02;100.00;101482.25;4910932;28;20061;-75
2022/03/29 07:11:24;;;;;;;57.22;31.63;;;;;;;7.11;100.00;101483.88;4928913;28;20100;-73
2022/03/29 07:13:50;;;;;;;65.18;33.22;;;;;;;7.17;100.00;101484.03;4925078;28;20046;-76
2022/03/29 07:16:20;;;;;;;58.55;32.45;;;;;;;7.29;100.00;101484.47;4923828;28;20042;-76
2022/03/29 07:18:45;;;;;;;59.55;33.25;;;;;;;7.29;100.00;101484.47;4924802;28;21005;-73
2022/03/29 07:21:11;;;;;;;57.75;33.60;;;;;;;7.36;100.00;101488.09;4909428;28;20081;-73
2022/03/29 07:23:37;;;;;;;55.60;32.38;;;;;;;7.39;100.00;101481.56;4924014;28;20113;-73
2022/03/29 07:26:03;;;;;;;62.13;32.95;;;;;;;7.56;100.00;101476.94;4925766;28;20078;-73
2022/03/29 07:28:28;;;;;;;58.50;33.00;;;;;;;7.62;100.00;101476.25;4925045;28;20050;-73
2022/03/29 07:30:54;;;;;;;53.80;32.15;;;;;;;7.84;100.00;101475.41;4909060;28;20156;-73
2022/03/29 07:33:19;;;;;;;63.03;32.85;;;;;;;8.01;100.00;101472.59;4921609;28;20030;-73
2022/03/29 07:35:45;;;;;;;57.08;31.75;;;;;;;8.12;100.00;101470.31;4911382;28;20253;-73
2022/03/29 07:38:12;;;;;;;70.95;32.78;;;;;;;8.18;100.00;101471.44;4898790;28;24399;-73
2022/03/29 07:40:38;;;;;;;53.00;28.98;;;;;;;8.38;100.00;101476.31;4908235;28;20066;-73
2022/03/29 07:43:05;;;;;;;51.80;26.58;;;;;;;8.43;100.00;101471.25;4929110;28;20065;-73
2022/03/29 07:45:30;;;;;;;55.53;29.08;;;;;;;8.49;100.00;101473.16;4935680;28;20149;-73
2022/03/29 07:47:56;;;;;;;48.35;28.45;;;;;;;8.52;100.00;101465.59;4931544;28;20082;-73
2022/03/29 07:50:23;;;;;;;49.63;27.83;;;;;;;8.64;100.00;101471.34;4930101;28;20117;-73
2022/03/29 07:52:50;;;;;;;57.67;26.98;;;;;;;8.79;100.00;101465.97;4909268;28;20051;-73
2022/03/29 07:55:16;;;;;;;47.00;22.80;;;;;;;8.91;100.00;101467.16;4923298;28;20141;-73
2022/03/29 07:57:41;;;;;;;42.28;23.95;;;;;;;9.04;100.00;101471.88;4923318;28;20046;-74
2022/03/29 08:02:54;;;;;;;44.92;24.73;;;;;;;9.20;100.00;101466.31;4927304;28;20150;-74
2022/03/29 08:05:21;;;;;;;39.30;22.90;;;;;;;9.22;100.00;101461.56;4910423;28;20042;-74
2022/03/29 08:07:47;;;;;;;47.05;23.50;;;;;;;9.26;100.00;101470.91;4930512;28;20030;-73
2022/03/29 08:10:13;;;;;;;51.58;25.30;;;;;;;9.18;100.00;101465.66;4903716;28;20066;-73
2022/03/29 08:12:42;;;;;;;43.10;23.27;;;;;;;9.22;100.00;101463.41;4928378;28;20112;-73
2022/03/29 08:15:10;;;;;;;45.67;22.50;;;;;;;9.20;100.00;101460.94;4909894;28;20046;-74
2022/03/29 08:17:36;;;;;;;49.35;22.17;;;;;;;9.07;100.00;101466.13;4924663;28;20038;-69
2022/03/29 08:20:04;;;;;;;43.10;23.75;;;;;;;9.06;100.00;101464.47;4914808;28;20062;-73
2022/03/29 08:22:30;;;;;;;43.85;24.27;;;;;;;9.09;100.00;101458.72;4925090;28;20070;-73
2022/03/29 08:24:55;;;;;;;45.03;23.38;;;;;;;8.96;100.00;101459.38;4926744;28;20679;-73
2022/03/29 08:27:21;;;;;;;45.67;24.25;;;;;;;9.20;100.00;101455.56;4910933;28;20065;-74
2022/03/29 08:29:47;;;;;;;54.58;22.00;;;;;;;9.46;100.00;101448.78;4927719;28;20406;-74
2022/03/29 08:32:13;;;;;;;47.30;22.60;;;;;;;9.68;100.00;101449.63;4909197;28;20185;-74
2022/03/29 08:34:39;;;;;;;44.38;22.45;;;;;;;9.98;100.00;101453.03;4904127;28;20687;-73
2022/03/29 08:37:04;;;;;;;47.28;23.73;;;;;;;10.13;100.00;101445.69;4905612;28;20074;-74
2022/03/29 08:39:30;;;;;;;42.95;22.52;;;;;;;10.43;100.00;101440.16;4921990;28;20049;-73
2022/03/29 08:42:03;;;;;;;40.03;23.58;;;;;;;10.42;100.00;101436.59;4921585;28;20141;-73
2022/03/29 08:44:29;;;;;;;43.88;23.98;;;;;;;10.29;100.00;101439.22;4901465;28;20400;-74
2022/03/29 08:46:55;;;;;;;46.35;23.35;;;;;;;10.05;100.00;101437.75;4923511;28;20030;-73
2022/03/29 08:49:21;;;;;;;39.95;23.42;;;;;;;10.04;100.00;101436.09;4915075;28;20096;-73
2022/03/29 08:51:48;;;;;;;38.17;23.33;;;;;;;9.86;100.00;101436.56;4909529;28;20044;-73
2022/03/29 08:54:15;;;;;;;50.97;23.67;;;;;;;9.56;100.00;101434.00;4912543;28;20201;-73
2022/03/29 08:56:40;;;;;;;46.47;23.77;;;;;;;9.48;100.00;101436.84;4923960;28;23817;-73
2022/03/29 08:59:05;;;;;;;40.92;22.90;;;;;;;9.33;100.00;101428.78;4911592;28;20047;-73
2022/03/29 09:01:31;;;;;;;49.65;23.17;;;;;;;9.29;100.00;101430.19;4922781;28;22784;-72
2022/03/29 09:04:13;;;;;;;49.83;20.80;;;;;;;9.18;100.00;101428.00;4923386;28;20038;-72
2022/03/29 09:06:50;;;;;;;37.13;18.42;;;;;;;9.64;100.00;101424.97;4912720;28;20058;-72
2022/03/29 09:09:39;;;;;;;41.22;18.60;;;;;;;9.68;100.00;101428.13;4925819;28;20035;-72
2022/03/29 09:12:14;;;;;;;34.75;17.83;;;;;;;9.89;100.00;101417.31;4924059;28;20081;-73
2022/03/29 09:17:46;;;;;;;33.95;17.77;;;;;;;10.29;100.00;101427.63;4915099;28;20050;-73
2022/03/29 09:20:21;;;;;;;32.67;17.08;;;;;;;10.83;100.00;101424.19;4928887;28;20442;-73
2022/03/29 09:22:47;;;;;;;38.40;16.65;;;;;;;11.25;100.00;101423.09;4908164;28;20479;-73
2022/03/29 09:25:14;;;;;;;38.38;16.45;;;;;;;11.31;100.00;101421.47;4928313;28;20035;-72
2022/03/29 09:28:00;;;;;;;39.15;17.15;;;;;;;11.25;100.00;101427.69;4907881;28;20165;-73
2022/03/29 09:30:28;;;;;;;42.75;16.33;;;;;;;11.37;100.00;101420.63;4924190;28;20158;-74
2022/03/29 09:33:01;;;;;;;33.95;14.77;;;;;;;11.55;100.00;101418.22;4909376;28;20062;-74
2022/03/29 09:35:27;;;;;;;30.05;13.82;;;;;;;12.08;92.94;101420.13;4925092;28;20031;-74
2022/03/29 09:37:53;;;;;;;34.15;13.50;;;;;;;12.23;90.53;101409.94;4897852;28;20068;-74
2022/03/29 09:40:20;;;;;;;33.65;12.98;;;;;;;12.23;84.55;101422.63;4920765;28;21079;-74
2022/03/29 09:43:06;;;;;;;36.13;14.68;;;;;;;12.89;77.12;101427.84;4922794;28;20055;-74
2022/03/29 09:45:40;;;;;;;36.00;15.18;;;;;;;13.13;68.09;101424.41;4918086;28;20050;-74
2022/03/29 09:48:38;;;;;;;37.50;15.25;;;;;;;13.09;66.92;101422.34;4943064;28;20168;-74
2022/03/29 09:51:10;;;;;;;38.17;14.77;;;;;;;13.28;64.61;101423.34;4884879;28;20161;-73
2022/03/29 09:53:52;;;;;;;35.97;15.60;;;;;;;12.86;63.94;101418.28;4924876;28;20034;-73
2022/03/29 09:56:26;;;;;;;33.60;14.73;;;;;;;13.01;62.67;101419.88;4908934;28;20104;-73
2022/03/29 09:59:21;;;;;;;35.25;14.65;;;;;;;13.10;62.69;101416.72;4944165;28;20530;-73
2022/03/29 10:01:53;;;;;;;34.72;14.38;;;;;;;13.30;63.83;101415.81;4898881;28;20054;-73
2022/03/29 10:04:20;;;;;;;31.42;13.85;;;;;;;13.54;62.28;101412.34;4905665;28;20117;-74
2022/03/29 10:06:47;;;;;;;28.70;12.93;;;;;;;13.40;61.37;101416.19;4887154;28;20554;-73
2022/03/29 10:09:29;;;;;;;27.23;13.80;;;;;;;13.14;60.64;101406.31;4941884;28;20037;-74
2022/03/29 10:11:59;;;;;;;28.73;13.48;;;;;;;12.85;64.46;101408.53;4910782;28;20043;-74
2022/03/29 10:14:26;;;;;;;29.13;13.07;;;;;;;13.12;62.67;101414.63;4915915;28;20557;-73
2022/03/29 10:16:53;;;;;;;29.35;12.73;;;;;;;13.11;60.45;101410.28;4912147;28;20049;-73
2022/03/29 10:19:19;;;;;;;30.23;13.23;;;;;;;12.85;61.82;101408.53;4932907;28;20072;-73
2022/03/29 10:21:45;;;;;;;27.35;12.75;;;;;;;12.53;62.99;101399.50;4924066;28;20483;-74
2022/03/29 10:24:16;;;;;;;31.25;12.27;;;;;;;12.53;64.43;101399.50;4908224;28;20046;-73
2022/03/29 10:26:47;;;;;;;33.67;13.45;;;;;;;12.49;64.09;101400.94;4920875;28;20034;-73
2022/03/29 10:29:15;;;;;;;29.92;12.52;;;;;;;12.69;64.84;101408.16;4904484;28;20120;-73
2022/03/29 10:31:56;;;;;;;31.25;12.35;;;;;;;12.07;66.88;101404.94;4923762;28;20137;-73
2022/03/29 10:34:24;;;;;;;28.20;12.43;;;;;;;11.77;71.63;101410.75;4905609;28;20101;-73
2022/03/29 10:37:14;;;;;;;30.77;12.15;;;;;;;11.56;79.57;101398.28;4924195;28;20039;-73
2022/03/29 10:39:41;;;;;;;28.50;11.10;;;;;;;11.46;77.65;101403.25;4909840;28;20058;-74
2022/03/29 10:42:28;;;;;;;32.28;14.07;;;;;;;11.44;83.30;101402.59;4923345;28;20581;-73
2022/03/29 10:45:20;;;;;;;32.35;11.52;;;;;;;11.31;81.30;101395.34;4909275;28;21169;-73
2022/03/29 10:47:49;;;;;;;33.00;11.48;;;;;;;11.38;81.16;101400.75;4923181;28;20041;-74
2022/03/29 10:50:16;;;;;;;26.73;10.13;;;;;;;11.49;80.47;101392.03;4907309;28;20054;-73
2022/03/29 10:52:47;;;;;;;36.15;11.63;;;;;;;11.45;82.40;101390.78;4921666;28;20113;-74
2022/03/29 10:55:17;;;;;;;26.65;9.75;;;;;;;11.73;75.65;101390.63;4916383;28;20043;-74
2022/03/29 10:58:05;;;;;;;27.55;9.52;;;;;;;12.02;72.84;101386.69;4914821;28;20046;-74
2022/03/29 11:00:32;;;;;;;28.75;10.15;;;;;;;12.16;70.27;101385.63;4920774;28;20157;-74
2022/03/29 11:03:13;;;;;;;30.25;9.93;;;;;;;12.52;65.59;101384.28;4906441;28;20093;-74
2022/03/29 11:06:06;;;;;;;26.45;10.38;;;;;;;13.02;61.31;101381.84;4922636;28;20180;-74
2022/03/29 11:08:34;;;;;;;26.20;9.90;;;;;;;13.07;60.72;101379.28;4907169;28;20051;-74
2022/03/29 11:11:00;;;;;;;25.77;9.27;;;;;;;13.11;60.38;101369.69;4923658;28;20204;-74
2022/03/29 11:13:30;;;;;;;30.20;10.10;;;;;;;13.38;60.13;101366.88;4920799;28;20344;-74
2022/03/29 11:16:03;;;;;;;26.20;8.88;;;;;;;13.01;62.83;101369.34;4923798;28;20042;-74
2022/03/29 11:18:32;;;;;;;29.85;8.55;;;;;;;13.14;61.85;101363.03;4910100;28;20657;-73
2022/03/29 11:21:04;;;;;;;26.27;9.55;;;;;;;12.82;64.00;101364.88;4920282;28;20038;-73
2022/03/29 11:23:39;;;;;;;24.70;8.20;;;;;;;13.00;62.02;101358.75;4904428;28;25986;-73